• Join FlightAware (Why Join?)
  • Login
  • US Flag 
04:57PM EDT


 

Airport Tracker/Info


-or-


 

Live Flight TrackerFlight Track Log ✈ NGF51U ✈ 10-May-2013 ✈ KACY - KBOS

Flight Track Log - Related Links

Times and Time Zones

All times are in EDT time to prevent confusion due to time zone crossing. See the NGF51U flight status page for this flight to view local times or setup timezone preferences in your user account.

Time Position Orientation Groundspeed Altitude Reporting Facility
EDT Latitude Longitude Course Direction KTS MPH feet Rate Location/Type
09:50AM 39.5200 -74.5925 48° Northeast 147 169 2,900  Level New York Center
09:51AM 39.5197 -74.5358 90° East 147 169 3,700 840 Climbing New York Center
09:52AM 39.5219 -74.4714 87° East 154 177 4,600 960 Climbing New York Center
09:53AM 39.5242 -74.4014 88° East 171 197 5,600 780 Climbing New York Center
09:54AM 39.5239 -74.3422 90° East 171 197 6,200 660 Climbing New York Center
09:55AM 39.3630 -74.3611 67° East  Level FlightAware Approximate
09:55AM 39.5561 -74.3036 43° Northeast 149 171 7,000  Level New York Center
09:56AM 39.3943 -74.3101 48° Northeast  Level FlightAware Approximate
09:56AM 39.5889 -74.2567 48° Northeast 164 189 7,000  Level New York Center
09:57AM 39.6258 -74.2072 46° Northeast 180 207 7,000  Level New York Center
09:58AM 39.6672 -74.1472 48° Northeast 187 215 7,000  Level New York Center
09:59AM 39.7042 -74.0925 49° Northeast 187 215 7,000  Level New York Center
10:00AM 39.7411 -74.0428 46° Northeast 187 215 7,000  Level New York Center
10:01AM 39.7758 -73.9931 48° Northeast 187 215 7,000  Level New York Center
10:02AM 39.8169 -73.9356 47° Northeast 187 215 7,000  Level New York Center
10:03AM 39.8539 -73.8806 49° Northeast 187 215 7,000  Level New York Center
10:04AM 39.8928 -73.8281 46° Northeast 192 221 7,000  Level New York Center
10:05AM 39.9231 -73.7808 50° Northeast 192 221 7,000  Level New York Center
10:06AM 39.9619 -73.7256 47° Northeast 192 221 7,000  Level New York Center
10:07AM 39.9989 -73.6731 47° Northeast 192 221 7,000  Level New York Center
10:08AM 40.0333 -73.6228 48° Northeast 192 221 7,000  Level New York Center
10:09AM 40.0725 -73.5594 51° Northeast 192 221 7,000  Level New York Center
10:10AM 40.1092 -73.5092 46° Northeast 192 221 7,000  Level New York Center
10:11AM 40.1519 -73.4539 45° Northeast 192 221 7,000  Level New York Center
10:12AM 40.1844 -73.4036 50° Northeast 192 221 7,000  Level New York Center
10:15AM 40.2739 -73.2722 48° Northeast 189 217 7,000  Level Boston Center
10:16AM 40.3097 -73.2183 49° Northeast 189 217 7,000  Level Boston Center
10:17AM 40.3453 -73.1644 49° Northeast 189 217 7,000  Level Boston Center
10:18AM 40.3833 -73.1103 47° Northeast 189 217 7,000  Level Boston Center
10:19AM 40.4211 -73.0561 47° Northeast 189 217 7,000  Level Boston Center
10:21AM 40.5167 -72.9167 48° Northeast 200 230 7,000  Level New York TRACON
10:22AM 40.5500 -72.8667 49° Northeast 202 232 7,000  Level New York TRACON
10:23AM 40.5833 -72.8167 49° Northeast 202 232 7,100  Climbing New York TRACON
10:24AM 40.6333 -72.7500 45° Northeast 202 232 7,000  Descending New York TRACON
10:25AM 40.6667 -72.7000 49° Northeast 205 236 7,100  Climbing New York TRACON
10:26AM 40.7000 -72.6500 49° Northeast 201 231 7,000 -60 Descending New York TRACON
10:27AM 40.7333 -72.6000 49° Northeast 200 230 7,000  Level New York TRACON
10:28AM 40.7833 -72.5667 27° Northeast 196 226 7,000  Level New York TRACON
10:29AM 40.8333 -72.5333 27° Northeast 194 223 7,000  Level New York TRACON
10:30AM 40.8833 -72.5000 27° Northeast 194 223 7,000  Level New York TRACON
10:31AM 40.9333 -72.4667 27° Northeast 192 221 7,000  Level New York TRACON
10:32AM 40.9667 -72.4333 37° Northeast 193 222 7,000 -60 Level New York TRACON
10:34AM 41.0561 -72.3714 28° Northeast 197 227 6,900  Descending Boston Center
10:35AM 41.1019 -72.3381 29° Northeast 195 224 7,000  Climbing Boston Center
10:36AM 41.1542 -72.2994 29° Northeast 195 224 7,000  Level Boston Center
10:37AM 41.1956 -72.2664 31° Northeast 194 223 7,000  Level Boston Center
10:38AM 41.2394 -72.2358 28° Northeast 194 223 7,000  Level Boston Center
10:39AM 41.2872 -72.2025 28° Northeast 195 224 7,000  Level Boston Center
10:40AM 41.3331 -72.1664 31° Northeast 194 223 7,000  Level Boston Center
10:41AM 41.3808 -72.1275 31° Northeast 190 219 7,000 -60 Level Boston Center
10:42AM 41.4183 -72.0831 42° Northeast 197 227 6,900  Descending Boston Center
10:43AM 41.4722 -72.0244 39° Northeast 195 224 7,000  Climbing Boston Center
10:44AM 41.5094 -71.9856 38° Northeast 197 227 7,000  Level Boston Center
10:45AM 41.5531 -71.9381 39° Northeast 198 228 7,000  Level Boston Center
10:46AM 41.5947 -71.8933 39° Northeast 196 226 7,000  Level Boston Center
10:47AM 41.6444 -71.8428 37° Northeast 192 221 7,000  Level Boston Center
10:48AM 41.6858 -71.7981 39° Northeast 194 223 7,000  Level Boston Center
10:49AM 41.7231 -71.7586 38° Northeast 193 222 7,000 -60 Level Boston Center
10:50AM 41.7644 -71.7108 41° Northeast 191 220 6,900  Descending Boston Center
10:52AM 41.8500 -71.6167 39° Northeast 192 221 7,000  Climbing KA90
10:53AM 41.9000 -71.5667 37° Northeast 192 221 7,000  Level KA90
10:54AM 41.9333 -71.5333 37° Northeast 192 221 7,000  Level KA90
10:55AM 41.9667 -71.4833 48° Northeast 190 219 7,000 -60 Level KA90
10:56AM 42.0000 -71.4333 48° Northeast 189 217 6,900 -420 Descending KA90
10:57AM 42.0500 -71.3833 37° Northeast 196 226 6,200 -540 Descending KA90
10:58AM 42.1000 -71.3500 26° Northeast 196 226 5,800 -540 Descending KA90
10:59AM 42.1500 -71.3167 26° Northeast 194 223 5,200 -480 Descending KA90
11:00AM 42.2000 -71.2833 26° Northeast 189 217 4,900 -120 Descending KA90
11:01AM 42.2500 -71.2500 26° Northeast 184 212 5,000  Climbing KA90
11:02AM 42.2833 -71.2333 20° North 180 207 5,000  Level KA90
11:03AM 42.3333 -71.2000 26° Northeast 181 208 5,000  Level KA90
11:04AM 42.3667 -71.1667 36° Northeast 181 208 5,000 -180 Level KA90
11:05AM 42.4167 -71.1333 26° Northeast 180 207 4,700 -600 Descending KA90
11:06AM 42.4667 -71.1000 26° Northeast 196 226 3,800 -1,080 Descending KA90
11:07AM 42.4833 -71.0333 71° East 202 232 2,700 -1,020 Descending KA90
11:08AM 42.4500 -70.9667 124° Southeast 188 216 1,900 -780 Descending KA90
11:09AM 42.4167 -70.9833 200° South 146 168 1,200 -660 Descending KA90
11:11AM 42.3630 -71.0064 149° Southeast  Level Estimated
11:18AM 42.3630 -71.0064 149° Southeast  Level Estimated